sensor_id;sensor_type;location;lat;lon;timestamp;pressure;altitude;pressure_sealevel;temperature;humidity
51239;BME280;38154;47.548;18.828;2023-09-12T00:01:35;98571.28;;;17.35;96.58
51239;BME280;38154;47.548;18.828;2023-09-12T00:04:01;98571.44;;;17.30;97.10
51239;BME280;38154;47.548;18.828;2023-09-12T00:06:27;98572.31;;;17.29;97.63
51239;BME280;38154;47.548;18.828;2023-09-12T00:08:53;98568.03;;;17.27;97.53
51239;BME280;38154;47.548;18.828;2023-09-12T00:11:19;98563.69;;;17.24;97.61
51239;BME280;38154;47.548;18.828;2023-09-12T00:13:45;98568.06;;;17.25;97.81
51239;BME280;38154;47.548;18.828;2023-09-12T00:16:11;98566.28;;;17.25;97.46
51239;BME280;38154;47.548;18.828;2023-09-12T00:18:37;98566.19;;;17.29;98.58
51239;BME280;38154;47.548;18.828;2023-09-12T00:21:03;98561.59;;;17.35;96.96
51239;BME280;38154;47.548;18.828;2023-09-12T00:23:29;98558.13;;;17.35;97.46
51239;BME280;38154;47.548;18.828;2023-09-12T00:25:56;98559.00;;;17.34;96.75
51239;BME280;38154;47.548;18.828;2023-09-12T00:28:22;98559.81;;;17.36;97.17
51239;BME280;38154;47.548;18.828;2023-09-12T00:30:48;98559.09;;;17.31;97.79
51239;BME280;38154;47.548;18.828;2023-09-12T00:33:14;98558.34;;;17.27;98.49
51239;BME280;38154;47.548;18.828;2023-09-12T00:35:41;98557.47;;;17.27;99.37
51239;BME280;38154;47.548;18.828;2023-09-12T00:38:08;98561.91;;;17.26;97.99
51239;BME280;38154;47.548;18.828;2023-09-12T00:40:34;98566.31;;;17.24;98.04
51239;BME280;38154;47.548;18.828;2023-09-12T00:43:00;98560.31;;;17.19;98.53
51239;BME280;38154;47.548;18.828;2023-09-12T00:45:26;98564.00;;;17.13;98.43
51239;BME280;38154;47.548;18.828;2023-09-12T00:47:53;98563.25;;;17.10;99.54
51239;BME280;38154;47.548;18.828;2023-09-12T00:50:20;98559.87;;;17.04;99.00
51239;BME280;38154;47.548;18.828;2023-09-12T00:52:47;98560.78;;;17.03;99.41
51239;BME280;38154;47.548;18.828;2023-09-12T00:55:14;98561.59;;;17.05;99.53
51239;BME280;38154;47.548;18.828;2023-09-12T00:57:40;98559.63;;;17.12;98.27
51239;BME280;38154;47.548;18.828;2023-09-12T01:00:07;98563.03;;;17.16;97.86
51239;BME280;38154;47.548;18.828;2023-09-12T01:02:39;98564.88;;;17.14;97.89
51239;BME280;38154;47.548;18.828;2023-09-12T01:05:07;98559.69;;;17.11;99.27
51239;BME280;38154;47.548;18.828;2023-09-12T01:07:34;98563.25;;;17.10;99.83
51239;BME280;38154;47.548;18.828;2023-09-12T01:10:00;98562.41;;;17.08;99.24
51239;BME280;38154;47.548;18.828;2023-09-12T01:12:27;98560.56;;;17.11;98.31
51239;BME280;38154;47.548;18.828;2023-09-12T01:14:53;98556.09;;;17.13;98.00
51239;BME280;38154;47.548;18.828;2023-09-12T01:17:19;98559.63;;;17.12;97.82
51239;BME280;38154;47.548;18.828;2023-09-12T01:19:45;98554.44;;;17.09;97.79
51239;BME280;38154;47.548;18.828;2023-09-12T01:25:20;98560.78;;;17.03;99.60
51239;BME280;38154;47.548;18.828;2023-09-12T01:27:54;98557.31;;;17.01;100.00
51239;BME280;38154;47.548;18.828;2023-09-12T01:30:21;98561.72;;;17.01;100.00
51239;BME280;38154;47.548;18.828;2023-09-12T01:32:48;98560.94;;;16.97;100.00
51239;BME280;38154;47.548;18.828;2023-09-12T01:35:14;98555.91;;;16.90;100.00
51239;BME280;38154;47.548;18.828;2023-09-12T01:37:40;98553.41;;;16.83;100.00
51239;BME280;38154;47.548;18.828;2023-09-12T01:40:06;98554.34;;;16.81;100.00
51239;BME280;38154;47.548;18.828;2023-09-12T01:42:45;98550.91;;;16.77;100.00
51239;BME280;38154;47.548;18.828;2023-09-12T01:45:14;98553.50;;;16.79;100.00
51239;BME280;38154;47.548;18.828;2023-09-12T01:47:41;98552.69;;;16.77;100.00
51239;BME280;38154;47.548;18.828;2023-09-12T01:50:08;98556.31;;;16.74;100.00
51239;BME280;38154;47.548;18.828;2023-09-12T01:52:35;98554.59;;;16.72;100.00
51239;BME280;38154;47.548;18.828;2023-09-12T01:55:02;98557.22;;;16.72;100.00
51239;BME280;38154;47.548;18.828;2023-09-12T01:57:28;98554.56;;;16.73;100.00
51239;BME280;38154;47.548;18.828;2023-09-12T01:59:54;98555.41;;;16.74;100.00
51239;BME280;38154;47.548;18.828;2023-09-12T02:02:20;98558.13;;;16.70;100.00
51239;BME280;38154;47.548;18.828;2023-09-12T02:05:11;98559.00;;;16.71;100.00
51239;BME280;38154;47.548;18.828;2023-09-12T02:07:39;98552.81;;;16.72;100.00
51239;BME280;38154;47.548;18.828;2023-09-12T02:10:06;98559.13;;;16.66;100.00
51239;BME280;38154;47.548;18.828;2023-09-12T02:12:32;98554.94;;;16.59;100.00
51239;BME280;38154;47.548;18.828;2023-09-12T02:14:58;98566.41;;;16.57;100.00
51239;BME280;38154;47.548;18.828;2023-09-12T02:17:24;98565.59;;;16.55;100.00
51239;BME280;38154;47.548;18.828;2023-09-12T02:19:50;98570.09;;;16.49;100.00
51239;BME280;38154;47.548;18.828;2023-09-12T02:22:16;98569.28;;;16.47;100.00
51239;BME280;38154;47.548;18.828;2023-09-12T02:24:41;98569.28;;;16.47;100.00
51239;BME280;38154;47.548;18.828;2023-09-12T02:27:07;98562.34;;;16.43;100.00
51239;BME280;38154;47.548;18.828;2023-09-12T02:29:34;98564.22;;;16.40;100.00
51239;BME280;38154;47.548;18.828;2023-09-12T02:32:00;98558.16;;;16.36;100.00
51239;BME280;38154;47.548;18.828;2023-09-12T02:34:26;98567.84;;;16.36;100.00
51239;BME280;38154;47.548;18.828;2023-09-12T02:36:52;98566.16;;;16.31;100.00
51239;BME280;38154;47.548;18.828;2023-09-12T02:39:18;98572.28;;;16.32;100.00
51239;BME280;38154;47.548;18.828;2023-09-12T02:41:44;98571.47;;;16.30;100.00
51239;BME280;38154;47.548;18.828;2023-09-12T02:44:10;98571.56;;;16.25;100.00
51239;BME280;38154;47.548;18.828;2023-09-12T02:46:36;98577.00;;;16.19;100.00
51239;BME280;38154;47.548;18.828;2023-09-12T02:49:02;98571.94;;;16.11;100.00
51239;BME280;38154;47.548;18.828;2023-09-12T02:51:28;98573.78;;;16.08;100.00
51239;BME280;38154;47.548;18.828;2023-09-12T02:53:54;98571.22;;;16.05;100.00
51239;BME280;38154;47.548;18.828;2023-09-12T02:56:20;98561.66;;;16.02;100.00
51239;BME280;38154;47.548;18.828;2023-09-12T02:58:47;98564.31;;;16.01;100.00
51239;BME280;38154;47.548;18.828;2023-09-12T03:01:17;98565.09;;;16.04;100.00
51239;BME280;38154;47.548;18.828;2023-09-12T03:03:45;98561.59;;;16.04;100.00
51239;BME280;38154;47.548;18.828;2023-09-12T03:06:13;98560.75;;;16.02;100.00
51239;BME280;38154;47.548;18.828;2023-09-12T03:08:40;98559.09;;;15.99;100.00
51239;BME280;38154;47.548;18.828;2023-09-12T03:11:06;98554.78;;;15.95;100.00
51239;BME280;38154;47.548;18.828;2023-09-12T03:13:33;98565.31;;;15.95;100.00
51239;BME280;38154;47.548;18.828;2023-09-12T03:16:00;98559.19;;;15.94;100.00
51239;BME280;38154;47.548;18.828;2023-09-12T03:18:26;98562.81;;;15.90;100.00
51239;BME280;38154;47.548;18.828;2023-09-12T03:20:52;98559.31;;;15.88;100.00
51239;BME280;38154;47.548;18.828;2023-09-12T03:23:20;98569.06;;;15.85;100.00
51239;BME280;38154;47.548;18.828;2023-09-12T03:25:46;98571.75;;;15.82;100.00
51239;BME280;38154;47.548;18.828;2023-09-12T03:28:12;98577.97;;;15.79;100.00
51239;BME280;38154;47.548;18.828;2023-09-12T03:30:38;98574.53;;;15.75;100.00
51239;BME280;38154;47.548;18.828;2023-09-12T03:33:05;98573.66;;;15.73;100.00
51239;BME280;38154;47.548;18.828;2023-09-12T03:35:32;98574.53;;;15.74;100.00
51239;BME280;38154;47.548;18.828;2023-09-12T03:37:58;98574.56;;;15.72;100.00
51239;BME280;38154;47.548;18.828;2023-09-12T03:40:24;98582.44;;;15.74;100.00
51239;BME280;38154;47.548;18.828;2023-09-12T03:42:50;98581.59;;;15.72;100.00
51239;BME280;38154;47.548;18.828;2023-09-12T03:45:16;98579.06;;;15.67;100.00
51239;BME280;38154;47.548;18.828;2023-09-12T03:47:41;98583.97;;;15.84;100.00
51239;BME280;38154;47.548;18.828;2023-09-12T03:50:09;98579.53;;;15.86;100.00
51239;BME280;38154;47.548;18.828;2023-09-12T03:52:35;98574.38;;;15.82;100.00
51239;BME280;38154;47.548;18.828;2023-09-12T03:55:01;98579.81;;;15.75;100.00
51239;BME280;38154;47.548;18.828;2023-09-12T03:57:27;98587.81;;;15.68;100.00
51239;BME280;38154;47.548;18.828;2023-09-12T03:59:52;98579.16;;;15.63;100.00
51239;BME280;38154;47.548;18.828;2023-09-12T04:02:18;98573.19;;;15.56;100.00
51239;BME280;38154;47.548;18.828;2023-09-12T04:04:44;98585.59;;;15.49;100.00
51239;BME280;38154;47.548;18.828;2023-09-12T04:07:10;98577.75;;;15.48;100.00
51239;BME280;38154;47.548;18.828;2023-09-12T04:09:36;98578.63;;;15.47;100.00
51239;BME280;38154;47.548;18.828;2023-09-12T04:12:02;98591.00;;;15.42;100.00
51239;BME280;38154;47.548;18.828;2023-09-12T04:14:28;98582.25;;;15.41;100.00
51239;BME280;38154;47.548;18.828;2023-09-12T04:16:54;98587.50;;;15.41;100.00
51239;BME280;38154;47.548;18.828;2023-09-12T04:19:20;98582.34;;;15.36;100.00
51239;BME280;38154;47.548;18.828;2023-09-12T04:21:45;98579.88;;;15.30;100.00
51239;BME280;38154;47.548;18.828;2023-09-12T04:24:11;98586.81;;;15.33;100.00
51239;BME280;38154;47.548;18.828;2023-09-12T04:26:37;98587.53;;;15.39;100.00
51239;BME280;38154;47.548;18.828;2023-09-12T04:29:03;98592.75;;;15.43;100.00
51239;BME280;38154;47.548;18.828;2023-09-12T04:31:29;98594.44;;;15.45;100.00
51239;BME280;38154;47.548;18.828;2023-09-12T04:33:55;98600.66;;;15.41;100.00
51239;BME280;38154;47.548;18.828;2023-09-12T04:36:21;98597.19;;;15.39;100.00
51239;BME280;38154;47.548;18.828;2023-09-12T04:38:46;98601.63;;;15.37;100.00
51239;BME280;38154;47.548;18.828;2023-09-12T04:41:13;98604.19;;;15.40;100.00
51239;BME280;38154;47.548;18.828;2023-09-12T04:43:44;98611.91;;;15.48;100.00
51239;BME280;38154;47.548;18.828;2023-09-12T04:46:11;98598.63;;;15.54;100.00
51239;BME280;38154;47.548;18.828;2023-09-12T04:48:37;98603.66;;;15.65;100.00
51239;BME280;38154;47.548;18.828;2023-09-12T04:51:03;98602.50;;;15.78;100.00
51239;BME280;38154;47.548;18.828;2023-09-12T04:53:29;98591.37;;;16.06;100.00
51239;BME280;38154;47.548;18.828;2023-09-12T04:56:02;98601.47;;;16.23;100.00
51239;BME280;38154;47.548;18.828;2023-09-12T04:58:28;98598.44;;;16.38;100.00
51239;BME280;38154;47.548;18.828;2023-09-12T05:00:54;98604.34;;;16.48;100.00
51239;BME280;38154;47.548;18.828;2023-09-12T05:03:22;98605.97;;;16.54;100.00
51239;BME280;38154;47.548;18.828;2023-09-12T05:05:48;98611.75;;;16.68;100.00
51239;BME280;38154;47.548;18.828;2023-09-12T05:08:16;98605.38;;;16.77;100.00
51239;BME280;38154;47.548;18.828;2023-09-12T05:10:46;98610.25;;;16.92;100.00
51239;BME280;38154;47.548;18.828;2023-09-12T05:13:12;98608.06;;;17.08;100.00
51239;BME280;38154;47.548;18.828;2023-09-12T05:15:40;98604.78;;;17.31;100.00
51239;BME280;38154;47.548;18.828;2023-09-12T05:18:06;98608.94;;;17.70;100.00
51239;BME280;38154;47.548;18.828;2023-09-12T05:20:33;98611.53;;;18.28;100.00
51239;BME280;38154;47.548;18.828;2023-09-12T05:22:59;98608.31;;;18.45;100.00
51239;BME280;38154;47.548;18.828;2023-09-12T05:25:25;98608.69;;;18.61;100.00
51239;BME280;38154;47.548;18.828;2023-09-12T05:27:52;98612.06;;;18.91;99.58
51239;BME280;38154;47.548;18.828;2023-09-12T05:30:18;98612.81;;;19.20;98.62
51239;BME280;38154;47.548;18.828;2023-09-12T05:32:44;98616.13;;;19.49;97.96
51239;BME280;38154;47.548;18.828;2023-09-12T05:35:10;98618.97;;;19.68;97.11
51239;BME280;38154;47.548;18.828;2023-09-12T05:37:36;98621.16;;;19.80;98.45
51239;BME280;38154;47.548;18.828;2023-09-12T05:40:02;98627.16;;;20.07;97.33
51239;BME280;38154;47.548;18.828;2023-09-12T05:42:29;98628.94;;;20.29;91.97
51239;BME280;38154;47.548;18.828;2023-09-12T05:44:55;98625.16;;;20.56;91.63
51239;BME280;38154;47.548;18.828;2023-09-12T05:47:22;98637.72;;;20.94;86.15
51239;BME280;38154;47.548;18.828;2023-09-12T05:49:47;98640.94;;;21.21;87.24
51239;BME280;38154;47.548;18.828;2023-09-12T05:52:13;98642.16;;;21.55;87.32
51239;BME280;38154;47.548;18.828;2023-09-12T05:54:40;98643.72;;;21.78;83.54
51239;BME280;38154;47.548;18.828;2023-09-12T05:57:07;98640.97;;;22.18;84.31
51239;BME280;38154;47.548;18.828;2023-09-12T05:59:36;98642.53;;;22.41;84.10
51239;BME280;38154;47.548;18.828;2023-09-12T06:02:02;98642.34;;;22.63;nan
51239;BME280;38154;47.548;18.828;2023-09-12T06:04:28;98641.56;;;22.96;83.12
51239;BME280;38154;47.548;18.828;2023-09-12T06:06:54;98642.97;;;23.21;81.56
51239;BME280;38154;47.548;18.828;2023-09-12T06:09:20;98649.59;;;23.63;80.39
51239;BME280;38154;47.548;18.828;2023-09-12T06:11:46;98658.06;;;24.35;75.91
51239;BME280;38154;47.548;18.828;2023-09-12T06:14:11;98658.81;;;25.44;70.62
51239;BME280;38154;47.548;18.828;2023-09-12T06:16:37;98659.87;;;27.20;62.05
51239;BME280;38154;47.548;18.828;2023-09-12T06:19:03;98667.69;;;29.21;52.77
51239;BME280;38154;47.548;18.828;2023-09-12T06:21:29;98670.81;;;30.62;48.26
51239;BME280;38154;47.548;18.828;2023-09-12T06:24:18;98671.91;;;32.07;42.42
51239;BME280;38154;47.548;18.828;2023-09-12T06:26:45;98673.88;;;32.95;41.90
51239;BME280;38154;47.548;18.828;2023-09-12T06:29:11;98676.09;;;33.48;40.75
51239;BME280;38154;47.548;18.828;2023-09-12T06:31:37;98677.69;;;33.88;40.37
51239;BME280;38154;47.548;18.828;2023-09-12T06:34:03;98681.81;;;34.48;38.17
51239;BME280;38154;47.548;18.828;2023-09-12T06:36:29;98687.22;;;34.66;37.08
51239;BME280;38154;47.548;18.828;2023-09-12T06:38:55;98690.81;;;35.02;36.47
51239;BME280;38154;47.548;18.828;2023-09-12T06:41:22;98687.81;;;35.23;35.65
51239;BME280;38154;47.548;18.828;2023-09-12T06:43:47;98687.44;;;35.44;35.59
51239;BME280;38154;47.548;18.828;2023-09-12T06:46:14;98686.66;;;35.52;34.34
51239;BME280;38154;47.548;18.828;2023-09-12T06:48:40;98691.81;;;35.63;34.34
51239;BME280;38154;47.548;18.828;2023-09-12T06:51:08;98686.38;;;35.37;34.30
51239;BME280;38154;47.548;18.828;2023-09-12T06:53:35;98692.53;;;36.00;33.63
51239;BME280;38154;47.548;18.828;2023-09-12T06:56:06;98694.56;;;35.72;33.00
51239;BME280;38154;47.548;18.828;2023-09-12T06:58:32;98689.94;;;35.64;32.83
51239;BME280;38154;47.548;18.828;2023-09-12T07:01:02;98687.28;;;35.98;32.17
51239;BME280;38154;47.548;18.828;2023-09-12T07:03:28;98689.00;;;36.58;30.61
51239;BME280;38154;47.548;18.828;2023-09-12T07:05:54;98691.97;;;37.06;28.53
51239;BME280;38154;47.548;18.828;2023-09-12T07:08:20;98694.00;;;37.12;29.06
51239;BME280;38154;47.548;18.828;2023-09-12T07:10:46;98703.31;;;37.67;26.85
51239;BME280;38154;47.548;18.828;2023-09-12T07:13:12;98699.81;;;37.34;27.95
51239;BME280;38154;47.548;18.828;2023-09-12T07:15:38;98695.03;;;37.36;28.47
51239;BME280;38154;47.548;18.828;2023-09-12T07:18:04;98702.41;;;38.00;26.62
51239;BME280;38154;47.548;18.828;2023-09-12T07:20:33;98695.38;;;37.66;26.99
51239;BME280;38154;47.548;18.828;2023-09-12T07:22:59;98694.75;;;37.95;26.19
51239;BME280;38154;47.548;18.828;2023-09-12T07:25:25;98696.91;;;38.16;25.71
51239;BME280;38154;47.548;18.828;2023-09-12T07:27:51;98701.94;;;38.28;25.43
51239;BME280;38154;47.548;18.828;2023-09-12T07:30:18;98702.41;;;38.39;25.71
51239;BME280;38154;47.548;18.828;2023-09-12T07:32:44;98706.94;;;38.08;25.23
51239;BME280;38154;47.548;18.828;2023-09-12T07:35:10;98709.03;;;38.45;24.89
51239;BME280;38154;47.548;18.828;2023-09-12T07:37:36;98711.94;;;39.21;24.00
51239;BME280;38154;47.548;18.828;2023-09-12T07:40:02;98712.03;;;39.51;22.51
51239;BME280;38154;47.548;18.828;2023-09-12T07:42:35;98714.78;;;38.82;23.35
51239;BME280;38154;47.548;18.828;2023-09-12T07:45:02;98710.09;;;38.67;22.85
51239;BME280;38154;47.548;18.828;2023-09-12T07:47:29;98710.19;;;38.82;23.18
51239;BME280;38154;47.548;18.828;2023-09-12T07:49:54;98707.88;;;39.55;21.59
51239;BME280;38154;47.548;18.828;2023-09-12T07:52:21;98718.84;;;38.86;22.27
51239;BME280;38154;47.548;18.828;2023-09-12T07:54:49;98709.12;;;39.29;22.10
51239;BME280;38154;47.548;18.828;2023-09-12T07:57:15;98704.09;;;39.94;20.28
51239;BME280;38154;47.548;18.828;2023-09-12T07:59:41;98709.53;;;39.79;21.14
51239;BME280;38154;47.548;18.828;2023-09-12T08:02:06;98701.25;;;40.17;20.89
51239;BME280;38154;47.548;18.828;2023-09-12T08:04:33;98705.81;;;40.32;20.17
51239;BME280;38154;47.548;18.828;2023-09-12T08:06:59;98702.44;;;40.45;20.09
51239;BME280;38154;47.548;18.828;2023-09-12T08:12:14;98696.16;;;40.14;20.45
51239;BME280;38154;47.548;18.828;2023-09-12T08:14:40;98704.25;;;39.78;21.21
51239;BME280;38154;47.548;18.828;2023-09-12T08:17:06;98696.81;;;39.19;20.56
51239;BME280;38154;47.548;18.828;2023-09-12T08:19:31;98702.53;;;39.62;20.24
51239;BME280;38154;47.548;18.828;2023-09-12T08:21:57;98709.22;;;39.59;21.24
51239;BME280;38154;47.548;18.828;2023-09-12T08:24:23;98704.34;;;40.14;20.16
51239;BME280;38154;47.548;18.828;2023-09-12T08:26:49;98710.38;;;40.97;20.01
51239;BME280;38154;47.548;18.828;2023-09-12T08:29:15;98706.22;;;39.99;20.65
51239;BME280;38154;47.548;18.828;2023-09-12T08:31:41;98705.37;;;38.84;21.56
51239;BME280;38154;47.548;18.828;2023-09-12T08:34:07;98702.16;;;38.49;21.97
51239;BME280;38154;47.548;18.828;2023-09-12T08:36:33;98703.63;;;38.91;22.03
51239;BME280;38154;47.548;18.828;2023-09-12T08:39:01;98712.28;;;39.18;20.30
51239;BME280;38154;47.548;18.828;2023-09-12T08:41:27;98712.16;;;39.73;20.90
51239;BME280;38154;47.548;18.828;2023-09-12T08:43:54;98703.03;;;40.10;20.93
51239;BME280;38154;47.548;18.828;2023-09-12T08:46:22;98712.06;;;39.81;20.73
51239;BME280;38154;47.548;18.828;2023-09-12T08:48:49;98710.16;;;39.28;21.72
51239;BME280;38154;47.548;18.828;2023-09-12T08:51:16;98709.62;;;38.64;22.59
51239;BME280;38154;47.548;18.828;2023-09-12T08:53:42;98700.97;;;38.52;22.60
51239;BME280;38154;47.548;18.828;2023-09-12T08:56:09;98708.91;;;38.70;22.50
51239;BME280;38154;47.548;18.828;2023-09-12T08:58:36;98713.87;;;38.89;21.82
51239;BME280;38154;47.548;18.828;2023-09-12T09:01:03;98713.16;;;39.57;21.73
51239;BME280;38154;47.548;18.828;2023-09-12T09:03:29;98711.06;;;38.74;22.10
51239;BME280;38154;47.548;18.828;2023-09-12T09:05:57;98704.53;;;38.52;22.29
51239;BME280;38154;47.548;18.828;2023-09-12T09:08:25;98704.59;;;38.99;21.98
51239;BME280;38154;47.548;18.828;2023-09-12T09:10:58;98705.41;;;39.07;22.16
51239;BME280;38154;47.548;18.828;2023-09-12T09:13:25;98708.84;;;39.62;21.57
51239;BME280;38154;47.548;18.828;2023-09-12T09:18:53;98700.47;;;39.26;21.83
51239;BME280;38154;47.548;18.828;2023-09-12T09:21:22;98693.69;;;38.75;22.45
51239;BME280;38154;47.548;18.828;2023-09-12T09:23:53;98698.56;;;38.57;23.08
51239;BME280;38154;47.548;18.828;2023-09-12T09:26:19;98694.19;;;38.48;22.92
51239;BME280;38154;47.548;18.828;2023-09-12T09:28:45;98697.75;;;38.17;23.39
51239;BME280;38154;47.548;18.828;2023-09-12T09:31:13;98691.13;;;38.11;23.86
51239;BME280;38154;47.548;18.828;2023-09-12T09:33:40;98699.09;;;38.52;23.13
51239;BME280;38154;47.548;18.828;2023-09-12T09:36:07;98695.25;;;39.39;22.80
51239;BME280;38154;47.548;18.828;2023-09-12T09:38:34;98702.31;;;38.56;22.68
51239;BME280;38154;47.548;18.828;2023-09-12T09:41:08;98707.56;;;38.66;22.89
51239;BME280;38154;47.548;18.828;2023-09-12T09:43:34;98694.38;;;37.34;24.70
51239;BME280;38154;47.548;18.828;2023-09-12T09:46:00;98694.09;;;37.93;24.51
51239;BME280;38154;47.548;18.828;2023-09-12T09:48:26;98695.63;;;37.87;23.58
51239;BME280;38154;47.548;18.828;2023-09-12T09:51:03;98699.38;;;37.86;23.74
51239;BME280;38154;47.548;18.828;2023-09-12T09:53:30;98692.31;;;38.17;23.13
51239;BME280;38154;47.548;18.828;2023-09-12T09:56:08;98698.66;;;38.40;23.16
51239;BME280;38154;47.548;18.828;2023-09-12T09:58:35;98694.19;;;38.48;23.07
51239;BME280;38154;47.548;18.828;2023-09-12T10:01:01;98688.50;;;39.50;22.62
51239;BME280;38154;47.548;18.828;2023-09-12T10:03:30;98690.84;;;39.15;22.79
51239;BME280;38154;47.548;18.828;2023-09-12T10:05:59;98687.16;;;39.46;22.12
51239;BME280;38154;47.548;18.828;2023-09-12T10:08:29;98692.03;;;38.66;22.05
51239;BME280;38154;47.548;18.828;2023-09-12T10:10:55;98677.03;;;37.99;21.60
51239;BME280;38154;47.548;18.828;2023-09-12T10:13:21;98672.59;;;38.07;21.74
51239;BME280;38154;47.548;18.828;2023-09-12T10:15:49;98681.25;;;38.96;21.55
51239;BME280;38154;47.548;18.828;2023-09-12T10:18:19;98679.72;;;38.47;21.80
51239;BME280;38154;47.548;18.828;2023-09-12T10:20:55;98680.13;;;38.67;22.56
51239;BME280;38154;47.548;18.828;2023-09-12T10:23:34;98679.56;;;39.18;21.64
51239;BME280;38154;47.548;18.828;2023-09-12T10:26:03;98662.94;;;38.67;21.58
51239;BME280;38154;47.548;18.828;2023-09-12T10:28:30;98674.78;;;38.42;21.55
51239;BME280;38154;47.548;18.828;2023-09-12T10:30:57;98677.69;;;38.41;21.66
51239;BME280;38154;47.548;18.828;2023-09-12T10:33:23;98671.47;;;37.93;22.32
51239;BME280;38154;47.548;18.828;2023-09-12T10:35:51;98656.84;;;37.85;22.40
51239;BME280;38154;47.548;18.828;2023-09-12T10:38:18;98657.41;;;37.73;22.38
51239;BME280;38154;47.548;18.828;2023-09-12T10:40:47;98665.28;;;37.35;23.26
51239;BME280;38154;47.548;18.828;2023-09-12T10:43:14;98653.06;;;37.06;23.04
51239;BME280;38154;47.548;18.828;2023-09-12T10:45:41;98657.25;;;36.51;23.45
51239;BME280;38154;47.548;18.828;2023-09-12T10:48:09;98648.06;;;36.35;24.48
51239;BME280;38154;47.548;18.828;2023-09-12T10:50:35;98645.34;;;36.52;24.43
51239;BME280;38154;47.548;18.828;2023-09-12T10:53:15;98655.38;;;36.59;24.12
51239;BME280;38154;47.548;18.828;2023-09-12T10:55:41;98650.63;;;36.70;24.72
51239;BME280;38154;47.548;18.828;2023-09-12T10:58:09;98646.03;;;36.37;24.11
51239;BME280;38154;47.548;18.828;2023-09-12T11:00:36;98646.38;;;35.92;24.67
51239;BME280;38154;47.548;18.828;2023-09-12T11:05:59;98638.47;;;36.74;24.43
51239;BME280;38154;47.548;18.828;2023-09-12T11:08:27;98643.87;;;37.15;23.33
51239;BME280;38154;47.548;18.828;2023-09-12T11:11:20;98644.56;;;36.76;23.79
51239;BME280;38154;47.548;18.828;2023-09-12T11:14:17;98638.44;;;37.23;24.07
51239;BME280;38154;47.548;18.828;2023-09-12T11:19:43;98641.34;;;37.22;23.94
51239;BME280;38154;47.548;18.828;2023-09-12T11:22:30;98639.53;;;37.62;23.42
51239;BME280;38154;47.548;18.828;2023-09-12T11:25:01;98638.75;;;37.45;24.27
51239;BME280;38154;47.548;18.828;2023-09-12T11:32:46;98632.31;;;37.05;23.60
51239;BME280;38154;47.548;18.828;2023-09-12T11:35:14;98626.06;;;37.04;23.63
51239;BME280;38154;47.548;18.828;2023-09-12T11:37:52;98624.84;;;36.90;23.94
51239;BME280;38154;47.548;18.828;2023-09-12T11:40:26;98632.50;;;37.11;23.31
51239;BME280;38154;47.548;18.828;2023-09-12T11:43:08;98626.88;;;37.38;22.32
51239;BME280;38154;47.548;18.828;2023-09-12T11:45:34;98629.03;;;37.67;22.98
51239;BME280;38154;47.548;18.828;2023-09-12T11:48:02;98620.06;;;37.17;23.07
51239;BME280;38154;47.548;18.828;2023-09-12T11:50:33;98626.16;;;36.29;23.97
51239;BME280;38154;47.548;18.828;2023-09-12T11:53:02;98622.44;;;36.63;23.31
51239;BME280;38154;47.548;18.828;2023-09-12T11:55:44;98607.53;;;36.50;23.92
51239;BME280;38154;47.548;18.828;2023-09-12T11:58:13;98614.97;;;36.65;23.67
51239;BME280;38154;47.548;18.828;2023-09-12T12:00:54;98608.66;;;36.31;24.13
51239;BME280;38154;47.548;18.828;2023-09-12T12:03:22;98616.31;;;36.36;23.19
51239;BME280;38154;47.548;18.828;2023-09-12T12:05:49;98604.44;;;36.70;22.96
51239;BME280;38154;47.548;18.828;2023-09-12T12:08:17;98610.94;;;36.85;23.04
51239;BME280;38154;47.548;18.828;2023-09-12T12:10:43;98603.06;;;36.33;23.67
51239;BME280;38154;47.548;18.828;2023-09-12T12:13:19;98599.44;;;36.16;23.49
51239;BME280;38154;47.548;18.828;2023-09-12T12:15:46;98605.97;;;35.89;23.97
51239;BME280;38154;47.548;18.828;2023-09-12T12:18:12;98608.72;;;35.97;24.83
51239;BME280;38154;47.548;18.828;2023-09-12T12:20:38;98596.44;;;35.76;24.95
51239;BME280;38154;47.548;18.828;2023-09-12T12:23:04;98596.78;;;35.47;24.38
51239;BME280;38154;47.548;18.828;2023-09-12T12:25:34;98595.72;;;35.14;25.10
51239;BME280;38154;47.548;18.828;2023-09-12T12:28:01;98589.75;;;34.84;25.85
51239;BME280;38154;47.548;18.828;2023-09-12T12:30:31;98592.75;;;34.81;25.55
51239;BME280;38154;47.548;18.828;2023-09-12T12:33:00;98589.00;;;34.37;25.87
51239;BME280;38154;47.548;18.828;2023-09-12T12:35:26;98576.56;;;34.89;25.20
51239;BME280;38154;47.548;18.828;2023-09-12T12:37:55;98589.16;;;34.36;26.81
51239;BME280;38154;47.548;18.828;2023-09-12T12:40:21;98576.44;;;34.72;25.21
51239;BME280;38154;47.548;18.828;2023-09-12T12:42:48;98571.19;;;34.71;26.00
51239;BME280;38154;47.548;18.828;2023-09-12T12:45:15;98568.34;;;33.91;27.60
51239;BME280;38154;47.548;18.828;2023-09-12T12:47:41;98570.09;;;33.54;27.34
51239;BME280;38154;47.548;18.828;2023-09-12T12:50:15;98562.44;;;32.83;28.04
51239;BME280;38154;47.548;18.828;2023-09-12T12:52:42;98566.44;;;32.59;28.62
51239;BME280;38154;47.548;18.828;2023-09-12T12:55:12;98562.63;;;32.42;28.60
51239;BME280;38154;47.548;18.828;2023-09-12T12:57:39;98557.62;;;32.38;28.98
51239;BME280;38154;47.548;18.828;2023-09-12T13:00:09;98563.59;;;32.12;28.81
51239;BME280;38154;47.548;18.828;2023-09-12T13:02:40;98559.63;;;31.56;29.23
51239;BME280;38154;47.548;18.828;2023-09-12T13:05:26;98555.78;;;31.58;30.38
51239;BME280;38154;47.548;18.828;2023-09-12T13:07:53;98557.25;;;31.41;29.66
51239;BME280;38154;47.548;18.828;2023-09-12T13:10:19;98549.38;;;31.19;29.87